Time;durP1;ratioP1;P1;durP2;ratioP2;P2;SDS_P1;SDS_P2;PMS_P1;PMS_P2;Temp;Humidity;BMP_temperature;BMP_pressure;BME280_temperature;BME280_humidity;BME280_pressure;Samples;Min_cycle;Max_cycle;Signal;HPM_P1;HPM_P2
2022/04/03 00:00:44;;;;;;;;;15.75;14.00;;;;;7.40;40.23;101775.84;5041918;28;45216;-69
2022/04/03 00:03:10;;;;;;;;;14.75;12.75;;;;;7.46;40.33;101779.47;5052138;28;45397;-69
2022/04/03 00:05:42;;;;;;;;;19.50;17.00;;;;;7.43;40.48;101775.94;5046837;28;45442;-70
2022/04/03 00:08:08;;;;;;;;;23.00;20.00;;;;;7.37;40.13;101791.38;5057975;28;45475;-70
2022/04/03 00:10:36;;;;;;;;;20.75;20.50;;;;;7.06;40.34;101733.91;5041161;28;45203;-70
2022/04/03 00:13:03;;;;;;;;;17.25;14.50;;;;;7.34;40.81;101782.59;5054004;28;45971;-69
2022/04/03 00:15:29;;;;;;;;;16.75;15.50;;;;;7.40;41.04;101787.97;5042258;28;45770;-69
2022/04/03 00:17:55;;;;;;;;;19.25;16.50;;;;;7.43;40.96;101783.75;5044178;28;45525;-70
2022/04/03 00:20:21;;;;;;;;;20.75;16.00;;;;;7.45;40.81;101783.81;5057581;28;45394;-69
2022/04/03 00:22:50;;;;;;;;;20.75;17.25;;;;;7.21;40.91;101766.56;5055891;28;45379;-69
2022/04/03 00:25:18;;;;;;;;;19.00;19.00;;;;;7.33;40.72;101792.13;5054810;28;45413;-68
2022/04/03 00:27:45;;;;;;;;;21.50;18.25;;;;;7.31;41.35;101790.28;5052723;28;45322;-69
2022/04/03 00:30:11;;;;;;;;;14.00;14.00;;;;;7.27;40.83;101783.22;5055827;28;45401;-69
2022/04/03 00:32:37;;;;;;;;;17.50;16.25;;;;;7.22;40.81;101773.53;5037815;28;45292;-69
2022/04/03 00:35:06;;;;;;;;;20.50;16.50;;;;;7.29;40.34;101779.84;5037237;28;45895;-69
2022/04/03 00:37:32;;;;;;;;;17.25;16.00;;;;;7.39;40.94;101800.13;5054656;28;45392;-69
2022/04/03 00:39:58;;;;;;;;;16.50;15.75;;;;;7.40;40.69;101791.50;5055970;28;45425;-70
2022/04/03 00:42:24;;;;;;;;;18.00;14.75;;;;;7.29;40.69;101771.13;5057252;28;45480;-69
2022/04/03 00:44:50;;;;;;;;;18.00;16.00;;;;;7.37;41.15;101787.88;5057383;28;45366;-69
2022/04/03 00:47:22;;;;;;;;;16.75;16.00;;;;;7.28;40.90;101775.44;5055800;28;45354;-69
2022/04/03 00:49:48;;;;;;;;;17.25;15.50;;;;;7.43;40.65;101788.09;5039505;28;45374;-69
2022/04/03 00:52:14;;;;;;;;;16.25;15.00;;;;;7.41;40.65;101780.22;5039753;28;45481;-70
2022/04/03 00:54:39;;;;;;;;;12.00;11.50;;;;;7.30;40.44;101770.28;5037975;28;45283;-70
2022/04/03 00:57:07;;;;;;;;;18.00;16.75;;;;;7.48;41.01;101794.34;5037190;28;45506;-69
2022/04/03 00:59:34;;;;;;;;;15.75;15.75;;;;;7.50;40.49;101796.97;5037258;28;45516;-69
2022/04/03 01:02:00;;;;;;;;;14.50;14.00;;;;;7.46;41.36;101790.78;5053056;28;45522;-70
2022/04/03 01:04:29;;;;;;;;;17.00;16.00;;;;;7.37;41.02;101775.75;5053285;28;45609;-70
2022/04/03 01:06:57;;;;;;;;;15.75;14.00;;;;;7.47;40.74;101787.34;5041505;27;45981;-69
2022/04/03 01:09:26;;;;;;;;;15.75;15.00;;;;;7.49;41.20;101793.47;5037701;28;45338;-70
2022/04/03 01:11:52;;;;;;;;;16.25;15.00;;;;;7.52;41.72;101790.09;5037575;28;45489;-69
2022/04/03 01:14:34;;;;;;;;;17.00;15.00;;;;;7.36;40.60;101760.06;5049815;28;45492;-69
2022/04/03 01:17:01;;;;;;;;;18.00;14.25;;;;;7.51;40.79;101784.00;5054274;28;45561;-70
2022/04/03 01:19:27;;;;;;;;;15.75;15.25;;;;;7.35;41.30;101764.38;5038813;28;45598;-71
2022/04/03 01:21:53;;;;;;;;;16.25;15.00;;;;;7.27;41.73;101781.50;5046316;28;45466;-70
2022/04/03 01:24:21;;;;;;;;;21.75;16.75;;;;;7.11;41.47;101766.19;5056362;28;45398;-70
2022/04/03 01:26:47;;;;;;;;;16.00;14.00;;;;;6.98;41.81;101746.69;5043545;28;45722;-71
2022/04/03 01:29:13;;;;;;;;;15.00;15.00;;;;;7.13;41.70;101785.38;5037540;28;45437;-70
2022/04/03 01:31:39;;;;;;;;;14.75;14.75;;;;;6.93;41.87;101750.88;5038266;28;45248;-70
2022/04/03 01:34:04;;;;;;;;;15.50;14.25;;;;;7.10;41.55;101783.56;5051831;28;45322;-71
2022/04/03 01:36:30;;;;;;;;;13.75;13.75;;;;;7.08;42.50;101774.81;5056074;28;45411;-70
2022/04/03 01:38:55;;;;;;;;;13.25;13.25;;;;;7.07;42.23;101767.84;5056447;28;45598;-69
2022/04/03 01:41:21;;;;;;;;;13.50;13.50;;;;;7.17;42.26;101782.94;5054610;28;46069;-69
2022/04/03 01:43:48;;;;;;;;;15.00;14.25;;;;;7.22;42.18;101788.28;5054968;28;45464;-69
2022/04/03 01:46:13;;;;;;;;;15.25;15.00;;;;;7.12;42.51;101760.16;5057209;27;45377;-70
2022/04/03 01:48:39;;;;;;;;;14.75;14.75;;;;;7.22;42.57;101780.47;5054987;28;45476;-70
2022/04/03 01:51:05;;;;;;;;;18.00;16.25;;;;;7.20;42.25;101779.53;5037748;28;45411;-68
2022/04/03 01:53:30;;;;;;;;;14.00;14.00;;;;;7.23;41.83;101788.31;5036841;28;45525;-72
2022/04/03 01:56:04;;;;;;;;;14.75;12.50;;;;;7.26;42.12;101779.75;5054349;28;45499;-70
2022/04/03 01:58:31;;;;;;;;;14.75;13.75;;;;;7.22;41.85;101770.94;5054795;28;45357;-71
2022/04/03 02:00:56;;;;;;;;;15.75;15.50;;;;;7.23;42.46;101772.69;5040961;28;47825;-69
2022/04/03 02:03:22;;;;;;;;;12.00;12.00;;;;;7.19;42.25;101762.16;5052255;28;45511;-69
2022/04/03 02:05:49;;;;;;;;;14.25;13.25;;;;;7.28;41.99;101780.66;5056279;28;45346;-69
2022/04/03 02:08:15;;;;;;;;;17.25;14.50;;;;;7.26;42.11;101776.22;5060643;28;45286;-71
2022/04/03 02:10:41;;;;;;;;;17.75;13.75;;;;;7.29;42.18;101781.56;5051604;28;46007;-71
2022/04/03 02:13:06;;;;;;;;;15.50;14.00;;;;;7.28;41.95;101778.03;5038527;28;45379;-69
2022/04/03 02:15:32;;;;;;;;;15.00;15.00;;;;;7.31;42.34;101779.84;5039835;28;45362;-70
2022/04/03 02:17:57;;;;;;;;;14.25;14.25;;;;;7.33;42.46;101779.09;5047468;28;45551;-69
2022/04/03 02:20:23;;;;;;;;;13.00;12.00;;;;;7.34;42.42;101777.38;5058250;27;45636;-71
2022/04/03 02:22:57;;;;;;;;;15.00;14.00;;;;;7.33;41.93;101780.81;5059502;28;45458;-69
2022/04/03 02:25:23;;;;;;;;;14.00;12.00;;;;;6.80;42.60;101690.53;5059772;28;45552;-71
2022/04/03 02:27:49;;;;;;;;;10.75;10.75;;;;;7.30;42.83;101778.09;5043111;28;45461;-68
2022/04/03 02:30:15;;;;;;;;;16.75;15.00;;;;;7.11;42.60;101761.88;5038488;28;46730;-69
2022/04/03 02:32:41;;;;;;;;;18.50;16.25;;;;;7.25;42.45;101790.97;5066049;27;45769;-69
2022/04/03 02:35:10;;;;;;;;;16.00;13.75;;;;;7.25;42.90;101787.50;5041042;28;45465;-70
2022/04/03 02:37:37;;;;;;;;;13.25;13.00;;;;;7.17;43.20;101777.72;5041121;28;45449;-69
2022/04/03 02:40:04;;;;;;;;;17.25;15.50;;;;;6.97;43.10;101758.81;5042256;28;45227;-70
2022/04/03 02:42:31;;;;;;;;;16.50;16.50;;;;;7.09;42.58;101783.50;5045634;28;45338;-69
2022/04/03 02:44:56;;;;;;;;;15.75;14.00;;;;;7.09;42.51;101786.97;5062791;28;45453;-70
2022/04/03 02:47:23;;;;;;;;;15.25;15.25;;;;;7.05;42.94;101772.09;5043833;28;45611;-70
2022/04/03 02:49:53;;;;;;;;;15.00;14.50;;;;;7.09;43.51;101786.97;5049599;28;46213;-71
2022/04/03 02:52:19;;;;;;;;;12.50;12.25;;;;;7.08;43.14;101781.75;5063876;28;45350;-69
2022/04/03 02:54:45;;;;;;;;;14.00;13.50;;;;;7.12;43.19;101781.91;5064443;28;45246;-69
2022/04/03 02:57:15;;;;;;;;;13.75;13.75;;;;;7.10;42.75;101785.28;5049993;28;45372;-70
2022/04/03 02:59:42;;;;;;;;;19.25;16.00;;;;;7.09;43.07;101784.38;5062166;28;46637;-70
2022/04/03 03:02:08;;;;;;;;;15.75;15.75;;;;;7.13;43.22;101786.25;5045004;28;45469;-69
2022/04/03 03:04:36;;;;;;;;;15.50;14.00;;;;;7.16;42.99;101783.75;5062375;28;45578;-70
2022/04/03 03:07:03;;;;;;;;;15.75;14.00;;;;;7.19;43.53;101791.69;5047595;28;45392;-70
2022/04/03 03:09:28;;;;;;;;;16.25;15.00;;;;;7.16;42.79;101788.06;5043919;28;45460;-70
2022/04/03 03:11:54;;;;;;;;;16.50;11.75;;;;;7.15;42.64;101789.81;5044293;28;45181;-69
2022/04/03 03:14:21;;;;;;;;;17.25;15.75;;;;;7.15;43.31;101796.75;5058883;28;45251;-71
2022/04/03 03:16:47;;;;;;;;;16.50;16.50;;;;;7.16;43.25;101790.69;5044852;28;45472;-70
2022/04/03 03:19:16;;;;;;;;;18.50;14.00;;;;;7.17;43.28;101790.75;5059595;28;45446;-70
2022/04/03 03:21:42;;;;;;;;;14.75;13.75;;;;;7.15;43.02;101792.41;5054640;28;45335;-70
2022/04/03 03:24:09;;;;;;;;;16.75;15.00;;;;;7.13;43.73;101796.69;5049258;28;45267;-69
2022/04/03 03:26:37;;;;;;;;;16.75;15.25;;;;;7.12;43.17;101799.22;5054742;28;45474;-70
2022/04/03 03:29:03;;;;;;;;;12.75;12.50;;;;;7.11;43.62;101806.16;5057213;28;45612;-70
2022/04/03 03:31:28;;;;;;;;;16.50;13.00;;;;;7.01;43.26;101794.56;5048732;28;45318;-70
2022/04/03 03:33:54;;;;;;;;;8.50;7.25;;;;;7.04;43.87;101793.75;5056357;28;45324;-70
2022/04/03 03:36:21;;;;;;;;;17.75;15.75;;;;;7.06;43.54;101799.91;5052764;28;45302;-69
2022/04/03 03:38:47;;;;;;;;;12.50;12.50;;;;;7.06;43.74;101801.66;5041809;28;45434;-70
2022/04/03 03:41:16;;;;;;;;;17.25;13.75;;;;;6.99;43.90;101785.78;5040783;28;45456;-69
2022/04/03 03:43:43;;;;;;;;;16.25;15.00;;;;;7.05;44.09;101797.25;5040769;28;45391;-69
2022/04/03 03:46:09;;;;;;;;;16.75;15.75;;;;;7.01;43.86;101796.28;5040153;28;45533;-71
2022/04/03 03:48:35;;;;;;;;;16.50;15.00;;;;;7.03;43.94;101806.75;5038631;28;47673;-70
2022/04/03 03:51:04;;;;;;;;;14.25;14.00;;;;;6.94;43.84;101808.19;5043405;28;45404;-70
2022/04/03 03:53:30;;;;;;;;;16.25;13.75;;;;;6.77;44.38;101784.19;5057510;28;45426;-70
2022/04/03 03:56:03;;;;;;;;;16.25;14.25;;;;;6.75;43.81;101782.38;5044365;28;45218;-70
2022/04/03 03:58:28;;;;;;;;;13.50;13.50;;;;;6.84;44.08;101802.66;5057472;28;46775;-70
2022/04/03 04:00:55;;;;;;;;;16.75;13.25;;;;;6.74;44.15;101778.00;5052126;28;45369;-70
2022/04/03 04:03:20;;;;;;;;;16.50;13.50;;;;;6.86;44.30;101798.34;5040715;28;45443;-70
2022/04/03 04:05:46;;;;;;;;;12.25;12.00;;;;;6.88;44.14;101808.00;5059170;28;45243;-70
2022/04/03 04:08:11;;;;;;;;;14.50;14.25;;;;;6.79;44.35;101794.66;5059040;28;45417;-69
2022/04/03 04:10:37;;;;;;;;;15.75;12.25;;;;;6.69;44.35;101793.47;5054835;28;45346;-69
2022/04/03 04:13:04;;;;;;;;;15.25;13.00;;;;;6.70;44.42;101808.25;5039921;28;45476;-69
2022/04/03 04:15:31;;;;;;;;;16.50;14.00;;;;;6.66;44.79;101813.28;5055865;28;45450;-70
2022/04/03 04:18:03;;;;;;;;;13.75;13.50;;;;;6.64;43.93;101808.03;5053797;28;46183;-69
2022/04/03 04:20:37;;;;;;;;;17.00;13.00;;;;;6.68;44.08;101812.50;5038979;28;45359;-69
2022/04/03 04:23:03;;;;;;;;;12.50;11.75;;;;;6.44;44.69;101780.41;5050015;28;45480;-70
2022/04/03 04:25:35;;;;;;;;;15.50;14.50;;;;;6.62;44.49;101820.13;5043037;28;45513;-70
2022/04/03 04:28:01;;;;;;;;;13.75;12.75;;;;;6.20;44.00;101739.69;5050789;28;46644;-70
2022/04/03 04:30:27;;;;;;;;;10.75;9.00;;;;;6.49;44.14;101791.88;5041406;28;45586;-70
2022/04/03 04:32:52;;;;;;;;;12.75;11.00;;;;;6.72;44.51;101824.81;5058252;28;45345;-69
2022/04/03 04:35:19;;;;;;;;;11.25;10.75;;;;;6.76;44.72;101831.91;5042500;28;45279;-70
2022/04/03 04:37:44;;;;;;;;;10.50;10.00;;;;;6.68;44.49;101820.31;5037656;28;46225;-70
2022/04/03 04:40:12;;;;;;;;;12.25;10.50;;;;;6.76;44.74;101831.91;5038620;28;45410;-70
2022/04/03 04:42:37;;;;;;;;;12.50;11.00;;;;;6.75;43.97;101829.25;5046987;28;45645;-70
2022/04/03 04:45:05;;;;;;;;;11.50;11.50;;;;;6.80;44.37;101836.38;5052084;28;45472;-70
2022/04/03 04:47:37;;;;;;;;;12.00;12.00;;;;;6.71;44.51;101819.53;5055692;28;46605;-70
2022/04/03 04:50:07;;;;;;;;;14.00;14.00;;;;;6.76;44.60;101839.72;5057214;28;45472;-69
2022/04/03 04:52:33;;;;;;;;;12.50;10.75;;;;;6.75;44.36;101837.06;5055729;28;45509;-69
2022/04/03 04:55:00;;;;;;;;;12.25;10.00;;;;;6.74;44.04;101837.91;5038806;28;45501;-71
2022/04/03 04:57:25;;;;;;;;;12.00;11.50;;;;;6.77;44.47;101843.19;5054884;28;47589;-69
2022/04/03 04:59:51;;;;;;;;;12.25;11.00;;;;;6.73;44.77;101850.00;5040245;28;45319;-68
2022/04/03 05:02:16;;;;;;;;;15.00;12.50;;;;;6.61;43.96;101833.06;5053283;28;45428;-70
2022/04/03 05:04:42;;;;;;;;;11.50;11.50;;;;;6.73;44.20;101850.00;5058426;28;45333;-70
2022/04/03 05:07:10;;;;;;;;;12.25;10.00;;;;;6.73;44.29;101850.00;5042683;28;45468;-70
2022/04/03 05:09:37;;;;;;;;;10.75;10.75;;;;;6.67;44.67;101842.00;5057360;28;45869;-71
2022/04/03 05:12:03;;;;;;;;;10.75;10.75;;;;;6.61;43.97;101833.94;5055650;28;45570;-71
2022/04/03 05:14:29;;;;;;;;;10.75;10.75;;;;;6.75;43.76;101858.75;5037537;28;45468;-71
2022/04/03 05:16:59;;;;;;;;;10.50;10.50;;;;;6.68;44.18;101850.69;5053304;28;46252;-69
2022/04/03 05:19:24;;;;;;;;;12.50;10.50;;;;;6.74;44.23;101857.00;5057456;28;45464;-71
2022/04/03 05:21:50;;;;;;;;;12.00;11.00;;;;;6.74;43.95;101863.94;5042255;28;45450;-70
2022/04/03 05:24:16;;;;;;;;;14.25;12.75;;;;;6.73;44.54;101860.41;5037753;28;45508;-70
2022/04/03 05:26:42;;;;;;;;;9.75;9.75;;;;;6.44;44.00;101828.16;5045867;28;46107;-69
2022/04/03 05:29:08;;;;;;;;;10.50;10.50;;;;;6.71;44.36;101862.06;5056702;28;45541;-70
2022/04/03 05:31:44;;;;;;;;;14.00;13.00;;;;;6.64;44.32;101851.41;5042745;28;45539;-70
2022/04/03 05:34:10;;;;;;;;;15.00;11.75;;;;;6.65;43.75;101864.47;5042646;28;45558;-70
2022/04/03 05:36:37;;;;;;;;;11.75;11.75;;;;;6.68;44.63;101869.78;5042432;28;45305;-71
2022/04/03 05:39:05;;;;;;;;;13.75;12.00;;;;;6.57;44.50;101856.41;5044664;28;45329;-69
2022/04/03 05:41:31;;;;;;;;;12.00;11.00;;;;;6.47;43.79;101842.97;5038010;28;45540;-70
2022/04/03 05:43:57;;;;;;;;;17.00;12.50;;;;;6.66;44.26;101881.84;5055988;28;45473;-70
2022/04/03 05:46:23;;;;;;;;;11.50;10.25;;;;;6.36;44.02;101832.19;5046208;28;46394;-69
2022/04/03 05:48:49;;;;;;;;;11.00;11.00;;;;;6.59;43.51;101874.66;5043222;28;45489;-70
2022/04/03 05:51:14;;;;;;;;;11.50;11.25;;;;;6.63;43.37;101879.16;5046819;28;45433;-69
2022/04/03 05:53:41;;;;;;;;;14.50;12.00;;;;;6.56;43.83;101866.75;5048916;28;46505;-68
2022/04/03 05:56:07;;;;;;;;;14.75;12.00;;;;;6.65;43.69;101884.44;5046072;28;45567;-69
2022/04/03 05:58:33;;;;;;;;;12.50;12.25;;;;;6.48;44.18;101847.38;5036654;28;45456;-69
2022/04/03 06:00:59;;;;;;;;;15.00;12.50;;;;;6.68;43.12;101885.41;5042402;28;45528;-66
2022/04/03 06:03:25;;;;;;;;;14.25;12.00;;;;;6.71;43.95;101885.50;5037927;28;45629;-70
2022/04/03 06:05:53;;;;;;;;;14.00;11.25;;;;;6.76;43.21;101886.59;5037663;28;45525;-70
2022/04/03 06:08:19;;;;;;;;;19.75;13.00;;;;;6.29;43.55;101806.78;5050552;28;45445;-70
2022/04/03 06:10:47;;;;;;;;;15.25;13.00;;;;;6.83;43.58;101887.66;5039629;28;45573;-71
2022/04/03 06:13:13;;;;;;;;;10.75;10.50;;;;;6.82;42.76;101885.91;5044259;28;45258;-71
2022/04/03 06:15:43;;;;;;;;;14.75;12.25;;;;;6.82;42.87;101870.28;5051066;28;47966;-71
2022/04/03 06:18:11;;;;;;;;;16.00;15.00;;;;;6.94;42.97;101895.88;5048532;28;45534;-70
2022/04/03 06:20:38;;;;;;;;;12.75;10.50;;;;;6.90;43.26;101902.69;5038804;28;45556;-71
2022/04/03 06:23:18;;;;;;;;;14.50;12.00;;;;;6.88;42.90;101895.66;5042805;28;45288;-71
2022/04/03 06:25:48;;;;;;;;;11.00;11.00;;;;;6.98;42.70;101901.25;5051736;28;46014;-70
2022/04/03 06:28:13;;;;;;;;;14.25;11.00;;;;;6.99;42.67;101904.75;5051335;28;45592;-70
2022/04/03 06:30:39;;;;;;;;;15.25;13.00;;;;;6.97;42.67;101899.47;5041481;28;45349;-70
2022/04/03 06:33:05;;;;;;;;;14.50;14.00;;;;;7.05;42.36;101912.78;5043222;28;45375;-69
2022/04/03 06:35:31;;;;;;;;;12.75;11.75;;;;;7.00;42.52;101904.81;5044980;28;45403;-71
2022/04/03 06:37:56;;;;;;;;;16.50;12.75;;;;;7.14;42.08;101927.81;5047385;28;45409;-70
2022/04/03 06:40:25;;;;;;;;;19.00;12.00;;;;;7.19;41.91;101928.91;5050291;28;45596;-70
2022/04/03 06:42:52;;;;;;;;;14.00;13.25;;;;;7.03;41.82;101900.53;5034787;28;45670;-70
2022/04/03 06:45:21;;;;;;;;;14.00;14.00;;;;;7.10;42.08;101931.19;5034456;28;45525;-71
2022/04/03 06:47:51;;;;;;;;;15.75;13.50;;;;;7.05;41.55;101927.50;5034730;28;45341;-69
2022/04/03 06:50:19;;;;;;;;;14.25;14.25;;;;;6.49;42.33;101837.00;5036147;28;45587;-71
2022/04/03 06:52:46;;;;;;;;;15.25;14.25;;;;;6.90;41.80;101912.22;5052052;28;45712;-69
2022/04/03 06:55:12;;;;;;;;;15.75;13.25;;;;;6.78;41.59;101926.56;5057674;27;45252;-70
2022/04/03 06:57:38;;;;;;;;;16.50;14.75;;;;;6.80;41.71;101945.75;5058728;28;45587;-71
2022/04/03 07:00:06;;;;;;;;;20.75;16.00;;;;;6.71;42.44;101950.59;5046594;28;45255;-71
2022/04/03 07:02:36;;;;;;;;;17.75;15.25;;;;;6.63;42.25;101932.94;5043703;28;45398;-70
2022/04/03 07:05:04;;;;;;;;;14.00;14.00;;;;;6.69;42.40;101944.47;5054035;28;46080;-70
2022/04/03 07:07:29;;;;;;;;;13.50;13.50;;;;;6.75;41.92;101947.28;5038858;28;45600;-70
2022/04/03 07:09:55;;;;;;;;;14.00;12.75;;;;;6.81;42.54;101951.84;5038905;28;45365;-70
2022/04/03 07:12:21;;;;;;;;;14.75;11.50;;;;;6.83;41.74;101959.72;5039671;28;45611;-68
2022/04/03 07:14:48;;;;;;;;;13.75;13.25;;;;;6.58;41.75;101919.75;5056643;28;46906;-69
2022/04/03 07:17:14;;;;;;;;;13.50;13.50;;;;;6.79;42.33;101941.38;5049949;28;45808;-71
2022/04/03 07:19:40;;;;;;;;;12.75;12.75;;;;;6.97;42.13;101959.38;5039445;28;45580;-70
2022/04/03 07:22:05;;;;;;;;;19.25;15.75;;;;;7.01;41.04;101961.25;5042117;28;45536;-70
2022/04/03 07:24:31;;;;;;;;;16.25;15.50;;;;;6.95;41.49;101957.53;5057658;28;45821;-70
2022/04/03 07:26:57;;;;;;;;;17.75;15.75;;;;;6.85;41.46;101927.69;5042150;28;45493;-71
2022/04/03 07:29:27;;;;;;;;;15.75;15.25;;;;;6.94;41.68;101929.75;5038758;28;45672;-70
2022/04/03 07:31:53;;;;;;;;;16.00;13.75;;;;;7.20;41.26;101967.13;5041554;28;45437;-70
2022/04/03 07:34:19;;;;;;;;;12.75;12.75;;;;;7.32;41.06;101969.28;5058316;28;45453;-69
2022/04/03 07:36:45;;;;;;;;;15.25;14.25;;;;;7.26;41.18;101949.13;5056897;28;45521;-70
2022/04/03 07:39:15;;;;;;;;;15.25;15.00;;;;;7.35;40.80;101951.16;5058650;28;45524;-71
2022/04/03 07:41:41;;;;;;;;;14.75;13.50;;;;;7.44;40.18;101969.72;5057052;28;45455;-71
2022/04/03 07:44:11;;;;;;;;;14.25;14.00;;;;;7.39;40.33;101950.44;5058371;28;46070;-69
2022/04/03 07:46:37;;;;;;;;;13.75;12.00;;;;;7.54;40.33;101961.38;5046634;28;45280;-68
2022/04/03 07:49:03;;;;;;;;;15.75;12.75;;;;;7.64;40.63;101970.41;5038226;28;45488;-69
2022/04/03 07:51:29;;;;;;;;;11.25;11.00;;;;;7.74;40.59;101969.00;5038585;28;46021;-68
2022/04/03 07:53:55;;;;;;;;;10.75;10.75;;;;;7.80;43.98;101963.97;5037162;28;47727;-71
2022/04/03 07:56:21;;;;;;;;;16.25;14.25;;;;;7.92;39.84;101974.78;5055201;28;45377;-71
2022/04/03 07:58:47;;;;;;;;;15.50;13.50;;;;;7.82;39.63;101976.22;5039160;28;45508;-69
2022/04/03 08:01:12;;;;;;;;;11.50;11.50;;;;;7.73;39.21;101968.09;5046588;28;45326;-69
2022/04/03 08:03:45;;;;;;;;;15.50;14.00;;;;;7.70;39.50;101972.31;5058252;28;45497;-70
2022/04/03 08:06:10;;;;;;;;;14.75;13.25;;;;;7.76;38.90;101981.25;5051911;28;45462;-70
2022/04/03 08:08:36;;;;;;;;;10.00;10.00;;;;;7.80;39.35;101982.22;5039619;28;45480;-71
2022/04/03 08:11:02;;;;;;;;;13.00;11.75;;;;;7.74;38.78;101956.84;5039190;28;45401;-70
2022/04/03 08:13:28;;;;;;;;;12.00;11.00;;;;;7.98;38.61;101990.66;5037786;28;46161;-71
2022/04/03 08:15:54;;;;;;;;;12.75;10.75;;;;;8.08;38.39;102000.56;5038233;28;45343;-70
2022/04/03 08:18:22;;;;;;;;;12.50;9.25;;;;;8.13;38.69;101982.44;5039632;28;45504;-71
2022/04/03 08:20:51;;;;;;;;;11.00;9.00;;;;;8.22;38.72;101981.84;5049513;28;45372;-71
2022/04/03 08:23:16;;;;;;;;;15.75;11.00;;;;;8.24;38.28;101970.63;5046635;28;46253;-71
2022/04/03 08:25:45;;;;;;;;;14.75;9.00;;;;;8.43;38.09;101982.53;5047164;28;45474;-71
2022/04/03 08:28:11;;;;;;;;;12.75;9.50;;;;;8.58;37.59;101999.53;5042744;28;45318;-69
2022/04/03 08:30:38;;;;;;;;;12.00;10.50;;;;;8.27;37.47;101944.59;5044472;28;45447;-70
2022/04/03 08:33:05;;;;;;;;;9.50;9.50;;;;;8.47;37.23;101996.56;5060777;28;47932;-71
2022/04/03 08:35:32;;;;;;;;;12.50;12.50;;;;;8.39;37.23;101980.63;5054444;28;45513;-70
2022/04/03 08:37:59;;;;;;;;;8.00;6.00;;;;;8.35;36.74;101978.81;5042887;28;45430;-71
2022/04/03 08:40:26;;;;;;;;;14.25;10.00;;;;;8.33;37.24;101998.75;5041490;28;45481;-71
2022/04/03 08:42:55;;;;;;;;;9.00;9.00;;;;;8.23;36.96;101976.69;5042956;28;46268;-70
2022/04/03 08:45:22;;;;;;;;;9.50;9.00;;;;;8.44;36.70;101996.47;5041480;28;45403;-71
2022/04/03 08:47:50;;;;;;;;;12.25;9.50;;;;;8.33;36.18;102003.97;5041140;28;45403;-71
2022/04/03 08:50:17;;;;;;;;;8.50;8.00;;;;;8.28;36.89;102000.28;5047640;28;45245;-71
2022/04/03 08:52:49;;;;;;;;;12.75;11.25;;;;;8.33;37.17;101995.22;5057122;28;46402;-71
2022/04/03 08:55:16;;;;;;;;;9.75;9.75;;;;;8.38;36.64;101997.16;5049614;28;45550;-72
2022/04/03 08:57:42;;;;;;;;;9.25;9.00;;;;;8.45;36.54;101996.53;5046754;28;45449;-70
2022/04/03 09:00:09;;;;;;;;;10.00;8.00;;;;;8.54;36.02;102003.75;5059320;28;45279;-70
2022/04/03 09:02:34;;;;;;;;;7.25;7.25;;;;;8.65;35.89;102001.47;5039666;28;46287;-70
2022/04/03 09:05:06;;;;;;;;;10.75;7.75;;;;;8.63;35.54;102000.53;5037453;28;45407;-71
2022/04/03 09:07:32;;;;;;;;;6.50;6.50;;;;;8.63;35.13;101985.75;5038113;28;45486;-72
2022/04/03 09:10:05;;;;;;;;;8.75;7.75;;;;;8.81;35.19;102000.22;5056448;28;45386;-71
2022/04/03 09:12:30;;;;;;;;;7.50;7.50;;;;;8.63;34.23;101996.19;5060386;28;45509;-71
2022/04/03 09:14:56;;;;;;;;;7.00;7.00;;;;;8.46;34.40;101987.84;5057721;28;45432;-71
2022/04/03 09:17:45;;;;;;;;;7.75;6.50;;;;;8.42;34.87;101970.34;5055408;28;45360;-71
2022/04/03 09:20:17;;;;;;;;;7.50;7.50;;;;;8.44;35.15;101965.16;5058105;28;45371;-72
2022/04/03 09:22:44;;;;;;;;;9.50;8.25;;;;;8.71;35.46;101991.22;5057871;28;46342;-70
2022/04/03 09:25:16;;;;;;;;;6.75;6.75;;;;;8.81;35.01;102002.84;5055790;28;46708;-70
2022/04/03 09:27:50;;;;;;;;;9.00;7.25;;;;;8.84;34.54;101988.13;5056852;28;45386;-69
2022/04/03 09:30:17;;;;;;;;;6.00;6.00;;;;;9.02;34.13;101994.72;5058403;28;45382;-71
2022/04/03 09:32:56;;;;;;;;;11.00;6.00;;;;;8.95;33.85;101964.91;5039082;28;45487;-71
2022/04/03 09:35:28;;;;;;;;;6.50;5.50;;;;;9.24;33.55;101996.22;5052972;28;45388;-71
2022/04/03 09:38:11;;;;;;;;;3.50;3.50;;;;;9.27;33.29;101971.03;5037052;28;45346;-70
2022/04/03 09:40:40;;;;;;;;;7.50;4.00;;;;;9.49;32.58;101985.56;5043038;28;45402;-69
2022/04/03 09:43:23;;;;;;;;;3.50;3.50;;;;;9.50;31.31;101989.06;5056814;28;46223;-70
2022/04/03 09:45:56;;;;;;;;;5.50;3.75;;;;;9.39;31.58;101974.81;5051485;28;45278;-70
2022/04/03 09:48:31;;;;;;;;;3.00;2.25;;;;;9.59;30.98;101976.25;5035677;28;45453;-71
2022/04/03 09:51:14;;;;;;;;;4.00;3.50;;;;;9.70;30.33;101990.44;5037620;28;45406;-70
2022/04/03 09:53:48;;;;;;;;;3.75;3.75;;;;;9.80;30.15;101988.06;5055526;28;46187;-70
2022/04/03 09:56:23;;;;;;;;;2.25;2.25;;;;;9.92;30.01;101988.41;5049606;28;45331;-70
2022/04/03 09:58:52;;;;;;;;;2.00;2.00;;;;;10.01;29.56;101985.09;5045944;28;45548;-70
2022/04/03 10:01:40;;;;;;;;;2.25;1.75;;;;;9.84;27.85;101969.88;5055018;28;45510;-71
2022/04/03 10:04:14;;;;;;;;;4.00;2.00;;;;;9.94;29.19;101970.97;5050223;28;45569;-70
2022/04/03 10:06:41;;;;;;;;;3.25;1.75;;;;;9.93;28.59;101974.47;5036218;28;45527;-71
2022/04/03 10:09:11;;;;;;;;;2.00;2.00;;;;;9.99;28.29;101979.84;5038051;28;45310;-71
2022/04/03 10:11:43;;;;;;;;;2.00;2.00;;;;;10.02;28.87;101974.69;5038346;28;45286;-69
2022/04/03 10:14:09;;;;;;;;;1.50;1.50;;;;;10.14;28.29;101972.34;5042259;28;45708;-71
2022/04/03 10:16:42;;;;;;;;;1.00;1.00;;;;;10.11;28.93;101958.31;5047096;28;45414;-70
2022/04/03 10:19:11;;;;;;;;;1.00;1.00;;;;;10.31;28.42;101966.66;5042937;27;45430;-70
2022/04/03 10:21:39;;;;;;;;;1.00;1.00;;;;;10.50;28.81;101966.22;5054068;28;45391;-70
2022/04/03 10:24:17;;;;;;;;;2.00;2.00;;;;;10.59;28.94;101973.41;5057439;28;45395;-71
2022/04/03 10:26:57;;;;;;;;;3.50;3.00;;;;;10.51;28.05;101968.00;5049970;28;45464;-71
2022/04/03 10:29:24;;;;;;;;;2.50;0.50;;;;;10.28;28.02;101970.09;5053480;28;45547;-71
2022/04/03 10:31:58;;;;;;;;;6.50;3.50;;;;;10.26;28.12;101978.72;5057258;28;45687;-71
2022/04/03 10:34:27;;;;;;;;;3.50;3.00;;;;;9.96;28.59;101959.69;5056875;28;45462;-71
2022/04/03 10:36:56;;;;;;;;;4.00;4.00;;;;;9.93;29.07;101936.09;5059679;28;45495;-71
2022/04/03 10:39:25;;;;;;;;;2.25;2.25;;;;;10.35;28.94;101974.63;5059800;27;45351;-70
2022/04/03 10:42:24;;;;;;;;;4.75;3.75;;;;;10.53;28.51;101968.00;5040939;28;45552;-70
2022/04/03 10:45:25;;;;;;;;;5.00;4.75;;;;;10.50;28.00;101974.06;5038908;28;45481;-70
2022/04/03 10:47:52;;;;;;;;;2.00;2.00;;;;;10.25;28.82;101941.19;5031242;28;45382;-70
2022/04/03 10:50:17;;;;;;;;;4.00;4.00;;;;;10.60;29.62;101973.41;5043055;28;45662;-71
2022/04/03 10:52:43;;;;;;;;;10.25;6.75;;;;;10.75;29.48;101966.75;5059714;28;45330;-72
2022/04/03 10:55:20;;;;;;;;;4.00;4.00;;;;;10.61;29.76;101938.53;5059025;28;45385;-71
2022/04/03 10:57:51;;;;;;;;;7.50;7.50;;;;;10.76;28.50;101966.78;5056328;28;45302;-72
2022/04/03 11:00:16;;;;;;;;;4.50;3.25;;;;;10.62;30.18;101968.22;5039916;28;45434;-71
2022/04/03 11:03:22;;;;;;;;;3.00;2.75;;;;;10.79;33.43;101963.31;5048258;28;45536;-70
2022/04/03 11:05:48;;;;;;;;;2.00;2.00;;;;;11.02;33.54;101942.84;5051091;28;45497;-72
2022/04/03 11:08:17;;;;;;;;;2.50;2.50;;;;;11.42;32.12;101951.44;5043036;28;45233;-74
2022/04/03 11:10:53;;;;;;;;;2.25;2.00;;;;;11.73;30.51;101952.84;5041733;28;45667;-71
2022/04/03 11:13:36;;;;;;;;;5.25;3.25;;;;;12.04;30.58;101951.63;5051728;28;45369;-72
2022/04/03 11:16:06;;;;;;;;;4.00;4.00;;;;;12.19;27.52;101948.34;5055098;28;45553;-73
2022/04/03 11:18:41;;;;;;;;;4.75;4.75;;;;;12.14;28.15;101950.03;5038897;28;45469;-71
2022/04/03 11:21:31;;;;;;;;;3.50;3.50;;;;;12.12;27.41;101938.59;5039575;28;45402;-73
2022/04/03 11:24:12;;;;;;;;;5.50;3.50;;;;;11.57;25.90;101895.72;5051639;28;45823;-71